createdAt,value
2019-03-19T00:02:08.876Z,21.03
2019-03-19T00:04:37.279Z,19.80
2019-03-19T00:07:05.720Z,20.60
2019-03-19T00:09:34.214Z,20.83
2019-03-19T00:12:02.681Z,20.80
2019-03-19T00:14:31.074Z,20.23
2019-03-19T00:16:59.504Z,21.53
2019-03-19T00:19:27.892Z,21.13
2019-03-19T00:21:56.327Z,20.03
2019-03-19T00:24:24.759Z,20.27
2019-03-19T00:26:53.259Z,20.70
2019-03-19T00:29:21.660Z,21.20
2019-03-19T00:31:50.072Z,20.50
2019-03-19T00:34:18.458Z,19.70
2019-03-19T00:36:46.853Z,19.53
2019-03-19T00:39:15.251Z,19.80
2019-03-19T00:41:43.656Z,21.23
2019-03-19T00:44:12.125Z,21.50
2019-03-19T00:46:40.525Z,22.10
2019-03-19T00:49:08.912Z,21.67
2019-03-19T00:51:37.312Z,21.23
2019-03-19T00:54:05.712Z,19.63
2019-03-19T00:56:34.118Z,21.40
2019-03-19T00:59:02.518Z,21.53
2019-03-19T01:01:30.958Z,21.77
2019-03-19T01:03:59.445Z,21.20
2019-03-19T01:06:27.891Z,21.50
2019-03-19T01:08:56.289Z,22.17
2019-03-19T01:11:24.772Z,23.03
2019-03-19T01:13:53.368Z,22.60
2019-03-19T01:16:21.786Z,22.27
2019-03-19T01:18:50.178Z,23.07
2019-03-19T01:21:18.608Z,22.57
2019-03-19T01:23:47.008Z,22.87
2019-03-19T01:26:15.400Z,21.57
2019-03-19T01:28:43.799Z,22.10
2019-03-19T01:31:12.227Z,22.37
2019-03-19T01:33:40.622Z,22.60
2019-03-19T01:36:09.019Z,23.27
2019-03-19T01:38:37.426Z,22.40
2019-03-19T01:41:05.828Z,22.00
2019-03-19T01:43:34.228Z,22.27
2019-03-19T01:46:02.622Z,21.67
2019-03-19T01:48:31.016Z,22.40
2019-03-19T01:50:59.410Z,23.43
2019-03-19T01:53:27.819Z,22.70
2019-03-19T01:56:04.773Z,23.60
2019-03-19T01:58:26.363Z,23.20
2019-03-19T02:00:54.778Z,23.27
2019-03-19T02:03:23.180Z,24.83
2019-03-19T02:05:51.568Z,22.83
2019-03-19T02:08:20.063Z,25.60
2019-03-19T02:10:48.469Z,24.97
2019-03-19T02:13:16.856Z,22.07
2019-03-19T02:15:45.251Z,22.43
2019-03-19T02:18:13.648Z,23.87
2019-03-19T02:20:42.049Z,24.03
2019-03-19T02:23:10.448Z,22.63
2019-03-19T02:25:38.840Z,22.10
2019-03-19T02:28:07.244Z,22.90
2019-03-19T02:30:35.640Z,22.90
2019-03-19T02:33:04.036Z,23.27
2019-03-19T02:35:32.425Z,22.23
2019-03-19T02:38:00.891Z,23.43
2019-03-19T02:40:29.290Z,24.07
2019-03-19T02:42:57.731Z,24.10
2019-03-19T02:45:26.120Z,22.20
2019-03-19T02:47:54.525Z,22.07
2019-03-19T02:50:23.022Z,24.27
2019-03-19T02:52:51.451Z,24.93
2019-03-19T02:55:19.854Z,22.30
2019-03-19T02:57:48.286Z,24.23
2019-03-19T03:00:17.823Z,21.93
2019-03-19T03:02:46.253Z,22.63
2019-03-19T03:05:22.032Z,22.73
2019-03-19T03:07:50.472Z,22.73
2019-03-19T03:10:18.980Z,23.33
2019-03-19T03:12:47.473Z,21.97
2019-03-19T03:15:15.873Z,22.50
2019-03-19T03:17:44.289Z,22.20
2019-03-19T03:20:13.737Z,21.10
2019-03-19T03:22:42.171Z,23.53
2019-03-19T03:25:12.978Z,22.37
2019-03-19T03:27:41.430Z,21.70
2019-03-19T03:30:15.161Z,20.93
2019-03-19T03:32:43.560Z,21.63
2019-03-19T03:35:11.975Z,20.90
2019-03-19T03:37:40.461Z,20.90
2019-03-19T03:40:12.125Z,20.80
2019-03-19T03:42:43.058Z,19.03
2019-03-19T03:45:12.287Z,22.27
2019-03-19T03:47:40.689Z,19.60
2019-03-19T03:50:16.013Z,19.70
2019-03-19T03:52:44.401Z,20.50
2019-03-19T03:55:13.840Z,19.43
2019-03-19T03:57:42.419Z,20.07
2019-03-19T04:00:19.010Z,20.20
2019-03-19T04:02:47.591Z,18.83
2019-03-19T04:05:16.013Z,18.90
2019-03-19T04:07:44.420Z,20.67
2019-03-19T04:10:14.920Z,18.90
2019-03-19T04:12:43.366Z,18.13
2019-03-19T04:15:15.837Z,19.10
2019-03-19T04:17:44.276Z,19.80
2019-03-19T04:20:13.710Z,19.70
2019-03-19T04:22:42.159Z,23.93
2019-03-19T04:25:10.979Z,21.00
2019-03-19T04:27:40.597Z,20.27
2019-03-19T04:30:12.679Z,19.77
2019-03-19T04:32:41.086Z,16.53
2019-03-19T04:35:09.487Z,18.50
2019-03-19T04:37:37.936Z,25.43
2019-03-19T04:40:09.587Z,19.50
2019-03-19T04:42:38.025Z,19.10
2019-03-19T04:45:08.860Z,17.43
2019-03-19T04:47:37.284Z,18.57
2019-03-19T04:50:11.146Z,18.77
2019-03-19T04:52:39.579Z,15.43
2019-03-19T04:55:10.215Z,16.87
2019-03-19T04:57:38.678Z,15.10
2019-03-19T05:00:12.292Z,15.70
2019-03-19T05:02:40.707Z,15.30
2019-03-19T05:05:10.542Z,16.53
2019-03-19T05:07:39.033Z,15.87
2019-03-19T05:10:15.515Z,15.20
2019-03-19T05:12:43.947Z,15.23
2019-03-19T05:15:12.340Z,14.70
2019-03-19T05:17:40.779Z,13.40
2019-03-19T05:20:15.888Z,13.57
2019-03-19T05:22:44.351Z,15.50
2019-03-19T05:25:12.731Z,13.53
2019-03-19T05:27:41.125Z,14.13
2019-03-19T05:30:14.865Z,14.40
2019-03-19T05:32:43.288Z,13.67
2019-03-19T05:35:11.683Z,12.80
2019-03-19T05:37:40.090Z,13.40
2019-03-19T05:40:11.736Z,13.10
2019-03-19T05:42:40.140Z,11.90
2019-03-19T05:45:10.764Z,13.87
2019-03-19T05:47:40.528Z,12.03
2019-03-19T05:50:15.312Z,12.93
2019-03-19T05:52:43.705Z,13.93
2019-03-19T05:55:12.177Z,12.33
2019-03-19T05:57:48.959Z,12.10
2019-03-19T06:00:13.206Z,12.03
2019-03-19T06:02:43.238Z,12.97
2019-03-19T06:05:12.368Z,11.33
2019-03-19T06:07:40.754Z,10.60
2019-03-19T06:10:13.149Z,12.07
2019-03-19T06:12:41.537Z,12.53
2019-03-19T06:15:14.116Z,11.23
2019-03-19T06:17:42.578Z,10.57
2019-03-19T06:20:12.916Z,10.67
2019-03-19T06:22:41.310Z,9.90
2019-03-19T06:25:11.107Z,11.00
2019-03-19T06:27:39.561Z,9.37
2019-03-19T06:30:18.487Z,11.73
2019-03-19T06:32:46.983Z,10.40
2019-03-19T06:35:16.123Z,8.67
2019-03-19T06:37:44.515Z,8.87
2019-03-19T06:40:17.834Z,9.50
2019-03-19T06:42:46.217Z,9.50
2019-03-19T06:45:18.776Z,9.47
2019-03-19T06:47:47.331Z,9.57
2019-03-19T06:50:17.862Z,9.27
2019-03-19T06:52:46.244Z,9.67
2019-03-19T06:55:16.832Z,9.23
2019-03-19T06:57:45.235Z,8.10
2019-03-19T07:00:19.179Z,9.20
2019-03-19T07:02:47.569Z,7.70
2019-03-19T07:05:17.242Z,12.10
2019-03-19T07:07:45.622Z,7.93
2019-03-19T07:10:15.152Z,8.80
2019-03-19T07:12:43.541Z,7.77
2019-03-19T07:15:18.117Z,7.87
2019-03-19T07:17:46.498Z,8.57
2019-03-19T07:20:19.642Z,9.00
2019-03-19T07:22:48.037Z,8.60
2019-03-19T07:25:16.425Z,9.10
2019-03-19T07:27:44.902Z,8.83
2019-03-19T07:30:21.413Z,6.60
2019-03-19T07:32:49.799Z,7.40
2019-03-19T07:35:18.197Z,7.93
2019-03-19T07:37:46.603Z,9.53
2019-03-19T07:40:15.862Z,7.30
2019-03-19T07:42:44.224Z,6.90
2019-03-19T07:45:22.984Z,9.87
2019-03-19T07:47:51.371Z,6.73
2019-03-19T07:50:20.602Z,7.20
2019-03-19T07:52:49.067Z,7.23
2019-03-19T07:55:17.450Z,6.40
2019-03-19T07:57:45.836Z,7.87
2019-03-19T08:00:17.869Z,9.83
2019-03-19T08:02:46.253Z,7.67
2019-03-19T08:05:14.689Z,10.30
2019-03-19T08:07:43.036Z,6.53
2019-03-19T08:10:17.315Z,5.30
2019-03-19T08:12:45.698Z,7.47
2019-03-19T08:15:15.290Z,7.57
2019-03-19T08:17:43.678Z,6.57
2019-03-19T08:20:15.570Z,6.73
2019-03-19T08:22:43.977Z,8.97
2019-03-19T08:25:13.427Z,5.97
2019-03-19T08:27:41.812Z,5.90
2019-03-19T08:30:18.727Z,8.17
2019-03-19T08:32:47.192Z,6.07
2019-03-19T08:35:15.606Z,6.03
2019-03-19T08:37:43.984Z,5.20
2019-03-19T08:40:20.345Z,5.97
2019-03-19T08:42:48.736Z,5.70
2019-03-19T08:45:18.832Z,4.90
2019-03-19T08:47:47.220Z,6.13
2019-03-19T08:50:22.477Z,4.87
2019-03-19T08:52:50.898Z,5.50
2019-03-19T08:55:19.326Z,4.97
2019-03-19T08:57:47.724Z,8.63
2019-03-19T09:00:23.378Z,5.07
2019-03-19T09:02:51.776Z,5.97
2019-03-19T09:05:20.164Z,5.20
2019-03-19T09:07:48.584Z,5.53
2019-03-19T09:10:17.906Z,4.63
2019-03-19T09:12:48.343Z,4.40
2019-03-19T09:15:17.761Z,5.43
2019-03-19T09:17:46.142Z,4.10
2019-03-19T09:20:15.574Z,5.73
2019-03-19T09:22:43.962Z,4.40
2019-03-19T09:25:12.538Z,5.33
2019-03-19T09:27:40.995Z,4.47
2019-03-19T09:30:14.736Z,5.30
2019-03-19T09:32:43.128Z,4.80
2019-03-19T09:35:11.518Z,3.87
2019-03-19T09:37:44.562Z,5.30
2019-03-19T09:40:15.492Z,4.67
2019-03-19T09:42:43.886Z,4.20
2019-03-19T09:45:13.097Z,5.73
2019-03-19T09:47:41.491Z,4.77
2019-03-19T09:50:15.201Z,3.53
2019-03-19T09:52:43.759Z,4.33
2019-03-19T09:55:14.017Z,3.30
2019-03-19T09:57:42.404Z,4.03
2019-03-19T10:00:23.693Z,3.53
2019-03-19T10:02:52.082Z,4.87
2019-03-19T10:05:20.514Z,3.77
2019-03-19T10:07:49.000Z,3.73
2019-03-19T10:10:22.367Z,4.00
2019-03-19T10:12:50.734Z,5.77
2019-03-19T10:15:19.166Z,3.40
2019-03-19T10:17:47.614Z,3.37
2019-03-19T10:20:21.283Z,3.00
2019-03-19T10:22:49.664Z,3.80
2019-03-19T10:25:18.084Z,3.00
2019-03-19T10:27:46.478Z,3.87
2019-03-19T10:30:21.777Z,2.67
2019-03-19T10:32:50.167Z,4.27
2019-03-19T10:35:18.573Z,3.37
2019-03-19T10:37:47.008Z,4.03
2019-03-19T10:40:19.654Z,3.63
2019-03-19T10:42:48.029Z,2.77
2019-03-19T10:45:20.010Z,3.67
2019-03-19T10:47:48.394Z,4.13
2019-03-19T10:50:25.148Z,2.60
2019-03-19T10:52:53.526Z,3.50
2019-03-19T10:55:21.918Z,3.13
2019-03-19T10:57:50.362Z,3.70
2019-03-19T11:00:25.666Z,3.53
2019-03-19T11:02:54.131Z,2.87
2019-03-19T11:05:23.289Z,3.57
2019-03-19T11:07:51.918Z,3.10
2019-03-19T11:10:20.323Z,2.73
2019-03-19T11:12:48.709Z,2.83
2019-03-19T11:15:19.336Z,3.17
2019-03-19T11:17:47.726Z,2.53
2019-03-19T11:20:17.378Z,2.60
2019-03-19T11:22:45.913Z,2.63
2019-03-19T11:25:27.955Z,3.63
2019-03-19T11:27:56.346Z,2.93
2019-03-19T11:30:31.680Z,2.63
2019-03-19T11:33:00.067Z,3.13
2019-03-19T11:35:28.588Z,2.53
2019-03-19T11:37:57.038Z,5.33
2019-03-19T11:40:26.262Z,2.30
2019-03-19T11:42:54.841Z,2.40
2019-03-19T11:45:24.513Z,2.83
2019-03-19T11:47:52.863Z,2.67
2019-03-19T11:50:23.839Z,2.47
2019-03-19T11:52:52.234Z,2.90
2019-03-19T11:55:20.660Z,2.93
2019-03-19T11:57:49.084Z,2.50
2019-03-19T12:00:22.415Z,2.70
2019-03-19T12:02:50.806Z,3.00
2019-03-19T12:05:19.195Z,2.87
2019-03-19T12:07:47.579Z,2.47
2019-03-19T12:10:15.976Z,2.87
2019-03-19T12:12:44.365Z,2.67
2019-03-19T12:15:13.156Z,2.50
2019-03-19T12:17:41.544Z,2.40
2019-03-19T12:20:12.540Z,2.70
2019-03-19T12:22:40.935Z,2.23
2019-03-19T12:25:10.753Z,2.50
2019-03-19T12:27:39.289Z,2.27
2019-03-19T12:30:22.581Z,2.83
2019-03-19T12:32:49.865Z,2.40
2019-03-19T12:35:18.890Z,2.63
2019-03-19T12:37:47.281Z,2.83
2019-03-19T12:40:17.763Z,2.30
2019-03-19T12:42:46.154Z,2.43
2019-03-19T12:45:16.744Z,2.23
2019-03-19T12:47:45.138Z,2.50
2019-03-19T12:50:15.670Z,3.23
2019-03-19T12:52:44.062Z,2.57
2019-03-19T12:55:12.458Z,2.27
2019-03-19T12:57:41.830Z,2.00
2019-03-19T13:00:20.510Z,2.77
2019-03-19T13:02:48.896Z,2.03
2019-03-19T13:05:17.286Z,2.53
2019-03-19T13:07:45.675Z,2.20
2019-03-19T13:10:21.531Z,2.63
2019-03-19T13:12:50.006Z,2.90
2019-03-19T13:15:19.566Z,3.27
2019-03-19T13:17:48.112Z,2.33
2019-03-19T13:20:20.467Z,2.20
2019-03-19T13:22:48.860Z,2.10
2019-03-19T13:25:18.497Z,2.57
2019-03-19T13:27:46.892Z,2.40
2019-03-19T13:30:26.623Z,3.07
2019-03-19T13:32:55.075Z,2.63
2019-03-19T13:35:23.467Z,2.30
2019-03-19T13:37:51.878Z,2.50
2019-03-19T13:40:20.392Z,2.63
2019-03-19T13:42:48.808Z,4.70
2019-03-19T13:45:25.126Z,2.93
2019-03-19T13:47:53.540Z,2.53
2019-03-19T13:50:22.374Z,2.20
2019-03-19T13:52:50.784Z,2.60
2019-03-19T13:55:20.240Z,3.37
2019-03-19T13:57:48.662Z,2.37
2019-03-19T14:00:17.809Z,2.80
2019-03-19T14:02:46.218Z,2.37
2019-03-19T14:05:16.611Z,2.43
2019-03-19T14:07:45.056Z,2.53
2019-03-19T14:10:17.238Z,2.63
2019-03-19T14:12:45.667Z,3.33
2019-03-19T14:15:16.658Z,3.03
2019-03-19T14:17:45.076Z,2.70
2019-03-19T14:20:17.701Z,1.93
2019-03-19T14:22:46.134Z,3.50
2019-03-19T14:25:15.482Z,2.73
2019-03-19T14:27:44.235Z,3.93
2019-03-19T14:30:27.687Z,3.07
2019-03-19T14:32:56.087Z,2.70
2019-03-19T14:35:24.491Z,3.07
2019-03-19T14:37:52.887Z,2.30
2019-03-19T14:40:24.901Z,2.73
2019-03-19T14:42:53.303Z,4.53
2019-03-19T14:45:21.697Z,2.50
2019-03-19T14:47:50.095Z,2.87
2019-03-19T14:50:23.764Z,3.23
2019-03-19T14:52:52.155Z,2.67
2019-03-19T14:55:20.543Z,2.60
2019-03-19T14:57:50.948Z,2.77
2019-03-19T15:00:19.894Z,2.93
2019-03-19T15:02:48.291Z,2.80
2019-03-19T15:05:16.690Z,2.93
2019-03-19T15:07:45.193Z,2.47
2019-03-19T15:10:23.766Z,3.27
2019-03-19T15:12:52.273Z,3.77
2019-03-19T15:15:21.609Z,3.00
2019-03-19T15:17:50.027Z,2.50
2019-03-19T15:20:21.678Z,3.40
2019-03-19T15:22:50.103Z,3.33
2019-03-19T15:25:18.553Z,2.67
2019-03-19T15:27:46.978Z,3.33
2019-03-19T15:30:16.798Z,3.70
2019-03-19T15:32:45.445Z,3.27
2019-03-19T15:35:13.836Z,3.30
2019-03-19T15:37:42.322Z,2.93
2019-03-19T15:40:13.314Z,2.80
2019-03-19T15:42:41.808Z,2.70
2019-03-19T15:45:12.437Z,3.20
2019-03-19T15:47:40.872Z,2.80
2019-03-19T15:50:11.797Z,3.03
2019-03-19T15:52:40.236Z,3.93
2019-03-19T15:55:08.850Z,2.93
2019-03-19T15:57:37.280Z,3.57
2019-03-19T16:00:08.999Z,2.70
2019-03-19T16:02:37.466Z,2.83
2019-03-19T16:05:08.992Z,3.87
2019-03-19T16:07:37.401Z,3.37
2019-03-19T16:10:08.029Z,2.80
2019-03-19T16:12:36.455Z,3.67
2019-03-19T16:15:07.551Z,3.30
2019-03-19T16:17:35.984Z,3.60
2019-03-19T16:20:10.205Z,5.97
2019-03-19T16:22:38.604Z,3.10
2019-03-19T16:25:08.339Z,3.23
2019-03-19T16:27:36.734Z,4.53
2019-03-19T16:30:15.890Z,4.43
2019-03-19T16:32:44.277Z,3.70
2019-03-19T16:35:13.174Z,4.03
2019-03-19T16:37:41.649Z,3.77
2019-03-19T16:40:17.567Z,4.13
2019-03-19T16:42:45.983Z,3.93
2019-03-19T16:45:14.369Z,4.37
2019-03-19T16:47:42.795Z,4.03
2019-03-19T16:50:16.007Z,3.30
2019-03-19T16:52:44.440Z,3.80
2019-03-19T16:55:15.162Z,3.77
2019-03-19T16:57:43.675Z,3.80
2019-03-19T17:00:21.338Z,4.20
2019-03-19T17:02:49.761Z,5.33
2019-03-19T17:05:18.426Z,4.03
2019-03-19T17:07:46.921Z,3.83
2019-03-19T17:10:19.796Z,4.30
2019-03-19T17:12:48.218Z,4.93
2019-03-19T17:15:17.235Z,4.47
2019-03-19T17:17:45.734Z,4.37
2019-03-19T17:20:18.240Z,4.53
2019-03-19T17:22:46.649Z,4.00
2019-03-19T17:25:23.462Z,4.93
2019-03-19T17:27:51.896Z,4.33
2019-03-19T17:30:31.203Z,4.57
2019-03-19T17:32:59.624Z,4.70
2019-03-19T17:35:28.076Z,4.10
2019-03-19T17:37:56.526Z,3.77
2019-03-19T17:40:24.911Z,3.93
2019-03-19T17:42:53.393Z,4.63
2019-03-19T17:45:21.736Z,3.60
2019-03-19T17:47:50.169Z,4.90
2019-03-19T17:50:23.877Z,4.73
2019-03-19T17:52:56.368Z,5.57
2019-03-19T17:55:26.461Z,6.37
2019-03-19T17:57:54.878Z,5.27
2019-03-19T18:00:27.725Z,6.07
2019-03-19T18:02:56.117Z,4.50
2019-03-19T18:05:24.506Z,6.03
2019-03-19T18:07:52.903Z,6.23
2019-03-19T18:10:21.441Z,5.10
2019-03-19T18:12:49.919Z,5.47
2019-03-19T18:15:19.212Z,6.40
2019-03-19T18:17:47.612Z,5.60
2019-03-19T18:20:16.750Z,6.30
2019-03-19T18:22:45.314Z,6.80
2019-03-19T18:25:15.038Z,8.23
2019-03-19T18:27:43.566Z,6.20
2019-03-19T18:30:17.015Z,7.13
2019-03-19T18:32:45.427Z,6.23
2019-03-19T18:35:13.816Z,7.33
2019-03-19T18:37:42.198Z,6.23
2019-03-19T18:40:14.869Z,7.87
2019-03-19T18:42:43.292Z,7.00
2019-03-19T18:45:16.580Z,9.20
2019-03-19T18:47:44.980Z,9.33
2019-03-19T18:50:17.511Z,9.60
2019-03-19T18:52:45.916Z,9.20
2019-03-19T18:55:14.323Z,6.73
2019-03-19T18:57:42.891Z,7.57
2019-03-19T19:00:18.236Z,10.43
2019-03-19T19:02:50.028Z,7.80
2019-03-19T19:05:20.885Z,8.90
2019-03-19T19:07:49.294Z,7.70
2019-03-19T19:10:20.903Z,10.97
2019-03-19T19:12:48.364Z,11.30
2019-03-19T19:15:23.840Z,8.60
2019-03-19T19:17:52.241Z,9.63
2019-03-19T19:20:20.713Z,9.77
2019-03-19T19:22:49.107Z,9.37
2019-03-19T19:25:22.711Z,9.83
2019-03-19T19:27:51.104Z,9.67
2019-03-19T19:30:21.837Z,7.17
2019-03-19T19:33:00.959Z,7.93
2019-03-19T19:35:21.180Z,10.57
2019-03-19T19:37:49.577Z,10.70
2019-03-19T19:40:18.543Z,9.53
2019-03-19T19:42:46.945Z,8.00
2019-03-19T19:45:18.929Z,8.73
2019-03-19T19:47:47.444Z,9.90
2019-03-19T19:50:20.983Z,8.20
2019-03-19T19:52:49.364Z,9.57
2019-03-19T19:55:17.766Z,8.10
2019-03-19T19:57:46.181Z,9.43
2019-03-19T20:00:18.513Z,9.20
2019-03-19T20:02:46.983Z,10.43
2019-03-19T20:05:15.456Z,9.37
2019-03-19T20:07:43.863Z,10.57
2019-03-19T20:10:17.034Z,10.37
2019-03-19T20:12:45.431Z,10.83
2019-03-19T20:15:14.014Z,13.20
2019-03-19T20:17:44.030Z,11.37
2019-03-19T20:20:21.322Z,10.97
2019-03-19T20:22:51.068Z,11.80
2019-03-19T20:25:19.467Z,11.73
2019-03-19T20:27:47.876Z,15.70
2019-03-19T20:30:18.505Z,11.47
2019-03-19T20:32:46.972Z,11.97
2019-03-19T20:35:15.380Z,13.90
2019-03-19T20:37:43.855Z,12.00
2019-03-19T20:40:13.901Z,15.23
2019-03-19T20:42:42.306Z,31.47
2019-03-19T20:45:12.897Z,32.90
2019-03-19T20:47:41.368Z,31.90
2019-03-19T20:50:15.741Z,32.30
2019-03-19T20:52:44.199Z,28.40
2019-03-19T20:55:12.716Z,33.83
2019-03-19T20:57:41.118Z,31.23
2019-03-19T21:00:12.906Z,30.53
2019-03-19T21:02:41.376Z,35.73
2019-03-19T21:05:09.803Z,29.47
2019-03-19T21:07:38.269Z,30.07
2019-03-19T21:10:10.087Z,28.07
2019-03-19T21:12:38.489Z,27.97
2019-03-19T21:15:09.566Z,25.73
2019-03-19T21:17:37.963Z,27.00
2019-03-19T21:20:07.468Z,34.70
2019-03-19T21:22:35.937Z,33.10
2019-03-19T21:25:05.440Z,30.17
2019-03-19T21:27:33.843Z,30.47
2019-03-19T21:30:02.311Z,32.70
2019-03-19T21:32:30.782Z,30.70
2019-03-19T21:34:59.395Z,28.50
2019-03-19T21:37:27.793Z,28.70
2019-03-19T21:39:56.231Z,26.93
2019-03-19T21:42:24.650Z,34.87
2019-03-19T21:44:53.091Z,24.13
2019-03-19T21:47:21.498Z,20.93
2019-03-19T21:49:50.054Z,20.93
2019-03-19T21:52:18.460Z,24.73
2019-03-19T21:54:46.892Z,24.23
2019-03-19T21:57:15.298Z,22.77
2019-03-19T21:59:43.741Z,23.43
2019-03-19T22:02:12.144Z,24.90
2019-03-19T22:04:40.634Z,27.13
2019-03-19T22:07:09.034Z,24.97
2019-03-19T22:09:37.496Z,25.10
2019-03-19T22:12:05.896Z,23.97
2019-03-19T22:14:34.355Z,28.57
2019-03-19T22:17:02.821Z,22.80
2019-03-19T22:19:31.226Z,28.10
2019-03-19T22:21:59.627Z,23.53
2019-03-19T22:24:28.037Z,25.00
2019-03-19T22:26:56.442Z,24.83
2019-03-19T22:29:24.845Z,23.90
2019-03-19T22:31:53.250Z,26.77
2019-03-19T22:34:21.653Z,24.57
2019-03-19T22:36:50.056Z,27.27
2019-03-19T22:39:18.453Z,25.60
2019-03-19T22:41:46.929Z,26.33
2019-03-19T22:44:15.326Z,24.50
2019-03-19T22:46:43.754Z,24.43
2019-03-19T22:49:12.156Z,24.23
2019-03-19T22:51:40.567Z,24.50
2019-03-19T22:54:08.972Z,24.93
2019-03-19T22:56:37.367Z,21.63
2019-03-19T22:59:05.881Z,23.23
2019-03-19T23:01:34.354Z,26.10
2019-03-19T23:04:02.755Z,24.20
2019-03-19T23:06:31.165Z,20.80
2019-03-19T23:08:59.563Z,23.30
2019-03-19T23:11:27.973Z,22.93
2019-03-19T23:13:56.385Z,21.33
2019-03-19T23:16:24.866Z,22.30
2019-03-19T23:18:53.263Z,20.13
2019-03-19T23:21:21.676Z,20.83
2019-03-19T23:23:50.076Z,24.03
2019-03-19T23:26:18.482Z,22.70
2019-03-19T23:28:46.877Z,21.17
2019-03-19T23:31:15.280Z,22.00
2019-03-19T23:33:43.683Z,21.63
2019-03-19T23:36:12.137Z,21.87
2019-03-19T23:38:40.542Z,21.50
2019-03-19T23:41:08.948Z,22.33
2019-03-19T23:43:37.378Z,22.63
2019-03-19T23:46:05.773Z,22.23
2019-03-19T23:48:34.177Z,18.30
2019-03-19T23:51:02.613Z,17.90
2019-03-19T23:53:31.018Z,21.03
2019-03-19T23:55:59.474Z,19.40
2019-03-19T23:58:27.878Z,19.37
